»·PEaware :: N3025F KPMD-KBFL

N3025F :: KPMD-KBFL

FLIGHT INFORMATION

Flight Status: Arrived
Operator: Privately registered:
United States
More flights under this callsign
Pilot: Keith L. (34129)
Aircraft: CESSNA 172 SKYHAWK
(C172)
More flights by this aircraft type
Origin: KPMD Palmdale AF Plant 42
United States
Destination: KBFL Meadows
United States
More flights between these airports :: More routes between these airports
Route: 3428N11720W L70
File this flight plan on PilotEdge
Remarks:
Altitude:
(Current/Filed)
5,500ft
Speed:
(Current/Filed)
110kts
Departed: 01-Apr-21 06:17 PM
Arrived: 01-Apr-21 07:02 PM
Distance/Time
Traveled:
68nm/0:45
Distance/Time
To Go:
Arrived

Flight Plot

Page will automatically refresh every two minutes.

Flight plan parsing failed; only flown route is shown


Map Options




Map Legend


Flown Route
Filed Route
Departure Airport
Arrival Airport
Navaid (VOR, NDB)
Fix

Horizontal Profiles

Position Reports

Time Latitude Longitude Heading Altitude Ground
Speed
01-Apr-21 18:15 34.490971 -118.154028 272 5498ft 112kts
01-Apr-21 18:16 34.492543 -118.191902 272 5499ft 112kts
01-Apr-21 18:17 34.494123 -118.229743 272 5498ft 112kts
01-Apr-21 18:18 34.495712 -118.267610 273 5503ft 112kts
01-Apr-21 18:19 34.522529 -118.279783 353 5501ft 114kts
01-Apr-21 18:20 34.552438 -118.291794 334 5504ft 113kts
01-Apr-21 18:21 34.581079 -118.308070 333 5502ft 114kts
01-Apr-21 18:22 34.609955 -118.324614 333 5497ft 114kts
01-Apr-21 18:23 34.638451 -118.340935 334 5501ft 113kts
01-Apr-21 18:24 34.668705 -118.352365 343 5498ft 113kts
01-Apr-21 18:25 34.699241 -118.362451 343 5497ft 114kts
01-Apr-21 18:26 34.729304 -118.372313 344 5279ft 91kts
01-Apr-21 18:27 34.756526 -118.381184 344 4629ft 107kts
01-Apr-21 18:28 34.784298 -118.394526 328 4509ft 112kts
01-Apr-21 18:29 34.809549 -118.416583 322 4500ft 111kts
01-Apr-21 18:30 34.833477 -118.440471 313 4498ft 111kts
01-Apr-21 18:31 34.854632 -118.467901 312 4499ft 111kts
01-Apr-21 18:32 34.872385 -118.498431 295 4502ft 111kts
01-Apr-21 18:33 34.884667 -118.533022 292 4500ft 111kts
01-Apr-21 18:34 34.886501 -118.570162 255 4499ft 110kts
01-Apr-21 18:35 34.877431 -118.605968 252 4523ft 108kts
01-Apr-21 18:36 34.872207 -118.638475 260 5125ft 97kts
01-Apr-21 18:37 34.873555 -118.671209 280 5727ft 97kts
01-Apr-21 18:38 34.878631 -118.703452 281 6327ft 96kts
01-Apr-21 18:39 34.893818 -118.734668 305 6493ft 113kts
01-Apr-21 18:40 34.914766 -118.761924 323 6502ft 110kts
01-Apr-21 18:41 34.941928 -118.779155 334 6499ft 110kts
01-Apr-21 18:42 34.972837 -118.794416 342 5991ft 128kts
01-Apr-21 18:43 35.007532 -118.806131 344 5282ft 129kts
01-Apr-21 18:44 35.042323 -118.817551 344 4619ft 126kts
01-Apr-21 18:45 35.074138 -118.827938 343 4507ft 113kts
01-Apr-21 18:46 35.097139 -118.850149 333 4503ft 110kts
01-Apr-21 18:47 35.125034 -118.865556 335 4500ft 110kts
01-Apr-21 18:48 35.152918 -118.880700 335 4499ft 109kts
01-Apr-21 18:49 35.180864 -118.895862 335 4499ft 109kts
01-Apr-21 18:50 35.208795 -118.911006 335 4500ft 109kts
01-Apr-21 18:51 35.236794 -118.926193 335 4499ft 109kts
01-Apr-21 18:52 35.266535 -118.933712 354 4450ft 114kts
01-Apr-21 18:53 35.295866 -118.928277 17 3711ft 109kts
01-Apr-21 18:54 35.325022 -118.926017 321 2729ft 111kts
01-Apr-21 18:55 35.346127 -118.948797 316 2197ft 102kts
01-Apr-21 18:57 35.367306 -118.972810 316 1558ft 95kts
01-Apr-21 18:58 35.385131 -118.995167 311 1469ft 92kts
01-Apr-21 18:59 35.402356 -119.017589 315 1281ft 86kts
01-Apr-21 19:00 35.418692 -119.037800 313 886ft 75kts
01-Apr-21 19:01 35.433317 -119.055591 314 489ft 54kts
01-Apr-21 19:02 35.436329 -119.057675 61 494ft 0kts
01-Apr-21 19:03 35.433489 -119.053534 136 486ft 29kts
01-Apr-21 19:04 35.431619 -119.049394 33 485ft 0kts
01-Apr-21 19:05 35.431619 -119.049394 33 485ft 0kts
01-Apr-21 19:06 35.431619 -119.049394 33 485ft 0kts
01-Apr-21 19:07 35.431619 -119.049394 33 485ft 0kts
01-Apr-21 19:08 35.431619 -119.049394 33 485ft 0kts
01-Apr-21 19:09 35.431619 -119.049394 33 485ft 0kts
01-Apr-21 19:10 35.431619 -119.049394 33 485ft 0kts
01-Apr-21 19:11 35.431619 -119.049394 33 485ft 0kts

Navigation Log

Ident Type
Flight plan parsing failed, navigation log unavailable